Stations météo

Publicité
Alcaniz, Espagne (8164): Température de l'air & dewpoint: 18.02.2019 00:00:00 - 24.02.2019 00:00:00 (CET)Alcaniz, Espagne (8164): Vitesse du vent & gusts: 18.02.2019 00:00:00 - 24.02.2019 00:00:00 (CET)Alcaniz, Espagne (8164): Direction du vent: 18.02.2019 00:00:00 - 24.02.2019 00:00:00 (CET)Alcaniz, Espagne (8164): Quantités de précipitations: 18.02.2019 00:00:00 - 24.02.2019 00:00:00 (CET)
Date & Time tt [°C] td [°C] ff [km/h] ff [knt] fx [km/h] fx [knt] dd rr [mm]
24.02.2019 00:00:00 8,4 0,2 2 1 9 5 SW 0,0
23.02.2019 23:00:00 9,4 0,2 5 3 12 6 SW 0,0
23.02.2019 22:00:00 9,2 0,6 0 0 5 3 N 0,0
23.02.2019 21:00:00 9,6 0,4 1 1 9 5 WSW 0,0
23.02.2019 20:00:00 10,9 0,6 3 2 8 4 WSW 0,0
23.02.2019 19:00:00 14,4 0,0 0 0 2 1 SSE -
23.02.2019 18:00:00 18,9 1,5 2 1 13 7 NNW 0,0
23.02.2019 17:00:00 19,6 0,6 8 4 32 18 NNW 0,0
23.02.2019 16:00:00 20,2 1,1 10 5 24 13 W 0,0
23.02.2019 15:00:00 19,5 0,4 10 6 22 12 WNW 0,0
23.02.2019 14:00:00 18,7 0,2 11 6 21 11 NW 0,0
23.02.2019 13:00:00 17,6 0,2 9 5 16 8 N -
23.02.2019 12:00:00 17,1 1,9 1 0 7 4 ENE 0,0
23.02.2019 11:00:00 14,3 1,9 0 0 5 3 SSE 0,0
23.02.2019 10:00:00 9,8 0,4 1 1 7 4 WSW 0,0
23.02.2019 09:00:00 6,7 -1,4 3 2 13 7 SW 0,0
23.02.2019 08:00:00 5,2 -2,2 4 2 12 7 WSW 0,0
23.02.2019 07:00:00 5,4 -2,0 3 1 13 7 S -
23.02.2019 06:00:00 5,8 -2,0 6 3 14 7 SSW 0,0
23.02.2019 05:00:00 6,2 -1,2 7 4 13 7 S 0,0
23.02.2019 04:00:00 6,4 -1,0 5 3 14 8 S 0,0
23.02.2019 03:00:00 6,9 -0,3 6 3 11 6 SSW 0,0
23.02.2019 02:00:00 6,6 -0,3 4 2 10 6 SW 0,0
23.02.2019 01:00:00 7,0 0,4 5 3 11 6 SSW -
23.02.2019 00:00:00 7,2 0,6 5 3 12 6 SSW 0,0
22.02.2019 23:00:00 6,7 0,4 4 2 12 7 WSW 0,0
22.02.2019 22:00:00 7,3 0,6 0 0 10 5 SW 0,0
22.02.2019 21:00:00 7,8 1,1 1 1 5 3 W 0,0
22.02.2019 20:00:00 9,8 0,9 0 0 2 1 N 0,0
22.02.2019 19:00:00 13,5 0,4 1 1 4 2 WSW -
22.02.2019 18:00:00 18,7 2,1 1 1 10 6 NW 0,0
22.02.2019 17:00:00 19,0 1,9 5 3 14 8 NNW 0,0
22.02.2019 16:00:00 19,2 1,3 7 4 19 10 NNW 0,0
22.02.2019 15:00:00 19,3 2,1 10 5 19 10 NW 0,0
22.02.2019 14:00:00 17,5 2,7 12 6 20 11 WNW 0,0
22.02.2019 13:00:00 16,1 2,5 8 4 15 8 WNW -
22.02.2019 12:00:00 14,1 2,7 1 1 7 4 E 0,0
22.02.2019 11:00:00 11,3 2,9 1 0 7 4 E 0,0
22.02.2019 10:00:00 6,4 2,1 3 2 9 5 WSW 0,0
22.02.2019 09:00:00 3,6 0,9 0 0 5 3 SW 0,0
22.02.2019 08:00:00 1,2 -0,7 0 0 9 5 NE 0,0
22.02.2019 07:00:00 3,3 0,6 0 0 7 4 SW -
22.02.2019 06:00:00 2,2 0,2 2 1 9 5 W 0,0
22.02.2019 05:00:00 2,8 0,6 6 3 12 6 SW 0,0
22.02.2019 04:00:00 3,0 1,1 0 0 7 4 SW 0,0
22.02.2019 03:00:00 3,2 0,9 3 2 10 5 S 0,0
22.02.2019 02:00:00 4,5 1,5 2 1 9 5 SW 0,0
22.02.2019 01:00:00 4,0 1,3 2 1 6 4 S -
22.02.2019 00:00:00 4,6 1,5 0 0 8 4 WSW 0,0
21.02.2019 23:00:00 4,6 0,9 2 1 6 3 W 0,0
21.02.2019 22:00:00 5,6 0,9 0 0 6 4 WNW 0,0
21.02.2019 21:00:00 6,5 0,4 1 1 6 3 SW 0,0
21.02.2019 20:00:00 8,7 0,4 1 1 3 2 S 0,0
21.02.2019 19:00:00 11,3 -0,3 0 0 6 4 E -
21.02.2019 18:00:00 14,8 1,3 0 0 11 6 N 0,0
21.02.2019 17:00:00 15,4 1,9 8 4 15 8 ENE 0,0
21.02.2019 16:00:00 15,4 2,5 10 5 14 8 ENE 0,0
21.02.2019 15:00:00 15,3 2,9 6 4 14 8 ENE 0,0
21.02.2019 14:00:00 14,3 3,9 9 5 15 8 E 0,0
21.02.2019 13:00:00 13,0 3,9 8 4 15 8 ENE -
21.02.2019 12:00:00 11,4 2,1 1 1 10 5 NW 0,0
21.02.2019 11:00:00 8,3 1,5 1 1 5 3 W 0,0
21.02.2019 10:00:00 4,5 1,7 1 0 5 3 SSW 0,0
21.02.2019 09:00:00 1,8 1,1 0 0 3 2 WSW 0,0
21.02.2019 08:00:00 -0,1 -0,5 0 0 0 0 N 0,0
21.02.2019 07:00:00 -0,4 -0,7 0 0 0 0 N -
21.02.2019 06:00:00 -0,2 -0,7 1 1 5 3 WSW 0,0
21.02.2019 05:00:00 0,0 -0,5 1 1 4 2 W 0,0
21.02.2019 04:00:00 0,1 -0,3 0 0 4 2 W 0,0
21.02.2019 03:00:00 0,6 0,0 0 0 0 0 N 0,0
21.02.2019 02:00:00 1,2 0,2 0 0 0 0 N 0,0
21.02.2019 01:00:00 2,3 1,3 0 0 0 0 N -
21.02.2019 00:00:00 2,8 1,3 0 0 0 0 N 0,0
20.02.2019 23:00:00 4,3 2,1 0 0 0 0 N 0,0
20.02.2019 22:00:00 4,7 2,1 0 0 3 2 N 0,0
20.02.2019 21:00:00 6,2 2,5 0 0 9 5 N 0,0
20.02.2019 20:00:00 7,2 1,5 4 2 7 4 W 0,0
20.02.2019 19:00:00 10,3 1,9 1 0 9 5 NNE -
20.02.2019 18:00:00 12,8 2,7 4 2 11 6 NE 0,0
20.02.2019 17:00:00 13,2 2,5 8 5 13 7 ENE 0,0
20.02.2019 16:00:00 13,5 2,1 8 5 15 8 ENE 0,0
20.02.2019 15:00:00 13,4 2,7 8 4 14 8 E 0,0
20.02.2019 14:00:00 13,0 3,0 4 2 10 6 E 0,0
20.02.2019 13:00:00 11,2 2,5 4 2 13 7 E -
20.02.2019 12:00:00 9,9 2,3 2 1 8 4 NNW 0,0
20.02.2019 11:00:00 7,8 2,5 0 0 1 0 ENE 0,0
20.02.2019 10:00:00 3,7 2,1 0 0 0 0 N 0,0
20.02.2019 09:00:00 0,2 0,0 0 0 0 0 N 0,0
20.02.2019 08:00:00 -2,0 -2,2 0 0 0 0 N 0,0
20.02.2019 07:00:00 -1,8 -2,2 0 0 0 0 N -
20.02.2019 06:00:00 -1,2 -1,7 0 0 0 0 N 0,0
20.02.2019 05:00:00 -0,5 -1,0 0 0 0 0 N 0,0
20.02.2019 04:00:00 -0,4 -0,7 0 0 0 0 N 0,0
20.02.2019 03:00:00 -0,4 -0,7 0 0 4 2 W 0,0
20.02.2019 02:00:00 0,8 0,2 0 0 4 2 N 0,0
20.02.2019 01:00:00 1,6 0,9 0 0 0 0 N -
20.02.2019 00:00:00 2,9 2,1 0 0 4 2 N 0,0
19.02.2019 23:00:00 4,0 2,9 1 0 3 2 NNE 0,0
19.02.2019 22:00:00 4,7 2,7 0 0 5 3 S 0,0
19.02.2019 21:00:00 5,7 3,0 0 0 5 3 N 0,0
19.02.2019 20:00:00 7,7 3,6 1 0 5 3 E 0,0
19.02.2019 19:00:00 9,0 3,2 1 1 12 7 W -
19.02.2019 18:00:00 11,7 3,8 6 3 13 7 ENE 0,0
19.02.2019 17:00:00 12,5 3,4 10 5 17 9 ENE 0,0
19.02.2019 16:00:00 12,6 2,5 9 5 18 10 ENE 0,0
19.02.2019 15:00:00 12,6 3,8 4 2 13 7 WSW 0,0
19.02.2019 14:00:00 10,0 4,8 5 3 14 7 WSW 0,0
19.02.2019 13:00:00 7,2 4,6 5 3 11 6 WSW -
19.02.2019 12:00:00 4,8 4,3 3 1 12 6 NW 0,0
19.02.2019 11:00:00 4,2 3,8 5 3 11 6 W 0,0
19.02.2019 10:00:00 2,7 0,2 1 1 5 3 SW 0,0
19.02.2019 09:00:00 -0,1 -1,4 0 0 5 3 SSE 0,0
19.02.2019 08:00:00 -2,0 -3,0 4 2 6 3 W 0,0
19.02.2019 07:00:00 -1,4 -2,5 0 0 2 1 N -
19.02.2019 06:00:00 -1,6 -2,2 2 1 5 3 SSW 0,0
19.02.2019 05:00:00 -1,2 -2,0 0 0 8 4 N 0,0
19.02.2019 04:00:00 -1,1 -1,7 1 0 6 4 S 0,0
19.02.2019 03:00:00 0,0 -1,0 0 0 0 0 N 0,0
19.02.2019 02:00:00 0,7 -0,3 0 0 0 0 N 0,0
19.02.2019 01:00:00 1,6 0,2 0 0 1 0 N -
19.02.2019 00:00:00 2,5 0,9 0 0 9 5 NE 0,0
18.02.2019 23:00:00 4,1 1,9 0 0 6 3 ENE 0,0
18.02.2019 22:00:00 4,3 2,1 1 1 7 4 W 0,0
18.02.2019 21:00:00 6,7 3,6 0 0 5 3 NE 0,0
18.02.2019 20:00:00 8,0 3,4 1 1 6 3 WNW 0,0
18.02.2019 19:00:00 10,7 3,4 4 2 9 5 S -
18.02.2019 18:00:00 14,8 4,1 3 1 14 8 N 0,0
18.02.2019 17:00:00 14,6 4,6 6 3 19 10 NNE 0,0
18.02.2019 16:00:00 13,7 3,9 11 6 23 13 NE 0,0
18.02.2019 15:00:00 13,1 4,5 10 5 18 10 NE 0,0
18.02.2019 14:00:00 12,4 3,6 6 4 16 9 NE 0,0
18.02.2019 13:00:00 10,4 2,7 3 2 10 5 NE -
18.02.2019 12:00:00 7,0 2,7 1 1 8 4 ESE 0,0
18.02.2019 11:00:00 3,2 2,9 2 1 9 5 WSW 0,0
18.02.2019 10:00:00 1,4 1,1 1 0 4 2 SSE 0,0
18.02.2019 09:00:00 0,0 -0,3 0 0 0 0 N 0,0
18.02.2019 08:00:00 -1,5 -2,2 0 0 4 2 N 0,0
18.02.2019 07:00:00 -2,2 -3,0 3 2 5 3 W -
18.02.2019 06:00:00 -1,8 -2,7 0 0 3 2 N 0,0
18.02.2019 05:00:00 -1,5 -2,5 0 0 5 3 WSW 0,0
18.02.2019 04:00:00 0,0 -1,4 0 0 5 3 N 0,0
18.02.2019 03:00:00 0,8 -1,2 0 0 10 5 N 0,0
18.02.2019 02:00:00 2,7 -0,5 2 1 7 4 E 0,0
18.02.2019 01:00:00 4,4 -0,5 4 2 9 5 E -
18.02.2019 00:00:00 5,0 -2,2 4 2 8 4 E 0,0

tt = Température de l'air
td = dewpoint
ff = Vitesse du vent
fx = gusts
dd = Direction du vent
rr = Quantités de précipitations

stations d'obs. à proximité